Sim-Planet VA

Sim-Planet Nouvel Horizon. By: Anthony Pay
Since 2020.




 METAR ET TAF INFORMATION
METAR FOR LFML
ADDS - METARS form results

(2256 UTC 23 October 2021)
Data provider http://aviationweather.gov/metar/data/
 
METAR text: LFML 232230Z AUTO 14004KT CAVOK 10/08 Q1023 NOSIG
Conditions at: LFML (MARSEILLE/MARIGN, FR) observed 2230 UTC 23 October 2021
Temperature: 10.0°C (50°F)
Dewpoint: 8.0°C (46°F) [RH = 87%]
Pressure (altimeter): 30.21 inches Hg (1023.0 mb)
Winds: from the SE (140 degrees) at 5 MPH (4 knots; 2.1 m/s)
Visibility: 6 or more miles (10+ km)
Ceiling: ceiling and visibility are OK
Clouds: unknown
Weather: no significant weather observed at this time

METAR text: LFML 232200Z AUTO 16002KT CAVOK 11/08 Q1023 NOSIG
Conditions at: LFML (MARSEILLE/MARIGN, FR) observed 2200 UTC 23 October 2021
Temperature: 11.0°C (52°F)
Dewpoint: 8.0°C (46°F) [RH = 82%]
Pressure (altimeter): 30.21 inches Hg (1023.0 mb)
Winds: from the SSE (160 degrees) at 2 MPH (2 knots; 1.0 m/s)
Visibility: 6 or more miles (10+ km)
Ceiling: ceiling and visibility are OK
Clouds: unknown
Weather: no significant weather observed at this time

Forecast for: LFML (MARSEILLE/MARIGN, FR)
Text: TAF LFML 232000Z 2321/2503 VRB03KT CAVOK TX21/2413Z TN10/2405Z
Forecast period: 2100 UTC 23 October 2021 to 0300 UTC 25 October 2021
Forecast type: FROM: standard forecast or significant change
Winds: variable direction winds at 3 MPH (3 knots; 1.5 m/s)
Visibility: 6 or more miles (10+ km)
Ceiling: unknown
Clouds: missing
Weather: no significant weather forecast for this period
Text: TEMPO 2411/2416 25010KT
Forecast period: 1100 to 1600 UTC 24 October 2021
Forecast type: TEMPORARY: The following changes expected for less than half the time period
Winds: from the WSW (250 degrees) at 12 MPH (10 knots; 5.1 m/s)
Visibility: missing
Ceiling: unknown
Clouds: missing
Weather: no significant weather forecast for this period

 AÉROPORT DE AÉROPORT

 INFORMATIONS DE PISTE
Piste 13L Longueur de la piste 11483 ft Largeur de la piste 148 ft
Élévation de la piste 8 ft Seuil de la piste déplacés 1116 ft Runway heading 134
Piste 31R Longueur de la piste 11483 ft Largeur de la piste 148 ft
Élévation de la piste 53 ft Seuil de la piste déplacés 2165 ft Runway heading 314
Piste 13R Longueur de la piste 7776 ft Largeur de la piste 148 ft
Élévation de la piste 8 ft Seuil de la piste déplacés 0 ft Runway heading 134
Piste 31L Longueur de la piste 7776 ft Largeur de la piste 148 ft
Élévation de la piste 61 ft Seuil de la piste déplacés 345 ft Runway heading 314

 AÉROPORT FRÉQUENCES
Type APP Nom APP/RADAR Féquence 120.2 MHZ
Type ATIS Nom ATIS Féquence 125.35 MHZ
Type GND Nom GND Féquence 121.9 MHZ
Type INFO Nom INFO Féquence 118.85 MHZ
Type PFLT Nom PERFLIGHT Féquence 121.725 MHZ
Type TWR Nom TWR Féquence 118.375 MHZ

 SIDA DE NAVIGATION
Type VOR-DME Nom Marseille/Provence Féquence 108800 KHZ

Nos Partenaires